sensor_id;sensor_type;location;lat;lon;timestamp;P1;durP1;ratioP1;P2;durP2;ratioP2
16775;SDS011;8505;49.456;8.164;2022-08-14T00:01:55;3.97;;;2.55;;
16775;SDS011;8505;49.456;8.164;2022-08-14T00:04:23;4.32;;;2.85;;
16775;SDS011;8505;49.456;8.164;2022-08-14T00:07:08;4.60;;;2.75;;
16775;SDS011;8505;49.456;8.164;2022-08-14T00:09:40;3.17;;;2.78;;
16775;SDS011;8505;49.456;8.164;2022-08-14T00:12:28;3.53;;;2.70;;
16775;SDS011;8505;49.456;8.164;2022-08-14T00:15:03;3.28;;;2.63;;
16775;SDS011;8505;49.456;8.164;2022-08-14T00:17:34;4.82;;;2.65;;
16775;SDS011;8505;49.456;8.164;2022-08-14T00:20:14;4.15;;;2.58;;
16775;SDS011;8505;49.456;8.164;2022-08-14T00:22:51;6.18;;;2.58;;
16775;SDS011;8505;49.456;8.164;2022-08-14T00:25:24;3.10;;;2.80;;
16775;SDS011;8505;49.456;8.164;2022-08-14T00:28:08;3.22;;;2.78;;
16775;SDS011;8505;49.456;8.164;2022-08-14T00:30:42;4.47;;;2.50;;
16775;SDS011;8505;49.456;8.164;2022-08-14T00:33:11;3.15;;;2.70;;
16775;SDS011;8505;49.456;8.164;2022-08-14T00:35:41;3.53;;;2.85;;
16775;SDS011;8505;49.456;8.164;2022-08-14T00:38:30;2.92;;;2.65;;
16775;SDS011;8505;49.456;8.164;2022-08-14T00:41:00;3.42;;;2.88;;
16775;SDS011;8505;49.456;8.164;2022-08-14T00:43:29;2.97;;;2.67;;
16775;SDS011;8505;49.456;8.164;2022-08-14T00:46:00;4.95;;;2.85;;
16775;SDS011;8505;49.456;8.164;2022-08-14T00:48:33;3.75;;;2.92;;
16775;SDS011;8505;49.456;8.164;2022-08-14T00:51:03;3.88;;;2.90;;
16775;SDS011;8505;49.456;8.164;2022-08-14T00:53:35;4.30;;;3.10;;
16775;SDS011;8505;49.456;8.164;2022-08-14T00:56:09;4.70;;;2.80;;
16775;SDS011;8505;49.456;8.164;2022-08-14T00:58:41;4.05;;;3.17;;
16775;SDS011;8505;49.456;8.164;2022-08-14T01:01:13;4.40;;;3.08;;
16775;SDS011;8505;49.456;8.164;2022-08-14T01:03:44;5.65;;;3.20;;
16775;SDS011;8505;49.456;8.164;2022-08-14T01:06:18;5.10;;;3.00;;
16775;SDS011;8505;49.456;8.164;2022-08-14T01:08:48;5.05;;;2.90;;
16775;SDS011;8505;49.456;8.164;2022-08-14T01:11:25;3.40;;;3.10;;
16775;SDS011;8505;49.456;8.164;2022-08-14T01:14:02;3.53;;;3.10;;
16775;SDS011;8505;49.456;8.164;2022-08-14T01:16:51;3.45;;;3.10;;
16775;SDS011;8505;49.456;8.164;2022-08-14T01:19:21;3.45;;;3.15;;
16775;SDS011;8505;49.456;8.164;2022-08-14T01:22:08;5.15;;;3.60;;
16775;SDS011;8505;49.456;8.164;2022-08-14T01:24:38;3.33;;;3.03;;
16775;SDS011;8505;49.456;8.164;2022-08-14T01:27:12;4.80;;;3.13;;
16775;SDS011;8505;49.456;8.164;2022-08-14T01:29:43;3.97;;;3.00;;
16775;SDS011;8505;49.456;8.164;2022-08-14T01:32:29;3.88;;;3.30;;
16775;SDS011;8505;49.456;8.164;2022-08-14T01:35:16;5.95;;;3.30;;
16775;SDS011;8505;49.456;8.164;2022-08-14T01:38:06;5.43;;;3.30;;
16775;SDS011;8505;49.456;8.164;2022-08-14T01:40:35;3.45;;;3.15;;
16775;SDS011;8505;49.456;8.164;2022-08-14T01:43:08;3.63;;;3.33;;
16775;SDS011;8505;49.456;8.164;2022-08-14T01:45:47;3.78;;;2.95;;
16775;SDS011;8505;49.456;8.164;2022-08-14T01:48:32;8.02;;;3.42;;
16775;SDS011;8505;49.456;8.164;2022-08-14T01:51:03;4.95;;;3.42;;
16775;SDS011;8505;49.456;8.164;2022-08-14T01:53:47;4.68;;;3.50;;
16775;SDS011;8505;49.456;8.164;2022-08-14T01:56:21;4.07;;;3.67;;
16775;SDS011;8505;49.456;8.164;2022-08-14T01:59:04;6.75;;;3.75;;
16775;SDS011;8505;49.456;8.164;2022-08-14T02:01:35;6.30;;;3.50;;
16775;SDS011;8505;49.456;8.164;2022-08-14T02:04:16;5.82;;;3.55;;
16775;SDS011;8505;49.456;8.164;2022-08-14T02:07:05;4.65;;;3.72;;
16775;SDS011;8505;49.456;8.164;2022-08-14T02:09:42;6.75;;;3.83;;
16775;SDS011;8505;49.456;8.164;2022-08-14T02:12:21;4.03;;;3.60;;
16775;SDS011;8505;49.456;8.164;2022-08-14T02:14:54;5.45;;;4.18;;
16775;SDS011;8505;49.456;8.164;2022-08-14T02:17:26;4.50;;;3.80;;
16775;SDS011;8505;49.456;8.164;2022-08-14T02:19:56;3.97;;;3.58;;
16775;SDS011;8505;49.456;8.164;2022-08-14T02:22:24;5.45;;;3.53;;
16775;SDS011;8505;49.456;8.164;2022-08-14T02:24:59;4.53;;;4.10;;
16775;SDS011;8505;49.456;8.164;2022-08-14T02:27:27;4.60;;;4.00;;
16775;SDS011;8505;49.456;8.164;2022-08-14T02:30:15;4.63;;;4.13;;
16775;SDS011;8505;49.456;8.164;2022-08-14T02:32:43;4.30;;;3.90;;
16775;SDS011;8505;49.456;8.164;2022-08-14T02:35:11;8.48;;;4.07;;
16775;SDS011;8505;49.456;8.164;2022-08-14T02:37:43;5.18;;;3.70;;
16775;SDS011;8505;49.456;8.164;2022-08-14T02:40:15;6.72;;;4.15;;
16775;SDS011;8505;49.456;8.164;2022-08-14T02:42:43;5.03;;;4.10;;
16775;SDS011;8505;49.456;8.164;2022-08-14T02:45:22;6.15;;;4.20;;
16775;SDS011;8505;49.456;8.164;2022-08-14T02:48:03;6.90;;;4.13;;
16775;SDS011;8505;49.456;8.164;2022-08-14T02:50:35;5.35;;;4.18;;
16775;SDS011;8505;49.456;8.164;2022-08-14T02:53:05;5.57;;;4.20;;
16775;SDS011;8505;49.456;8.164;2022-08-14T02:55:35;5.32;;;3.92;;
16775;SDS011;8505;49.456;8.164;2022-08-14T02:58:05;4.87;;;4.37;;
16775;SDS011;8505;49.456;8.164;2022-08-14T03:00:33;6.32;;;4.25;;
16775;SDS011;8505;49.456;8.164;2022-08-14T03:03:05;5.57;;;4.40;;
16775;SDS011;8505;49.456;8.164;2022-08-14T03:05:34;5.40;;;4.82;;
16775;SDS011;8505;49.456;8.164;2022-08-14T03:08:08;6.35;;;4.40;;
16775;SDS011;8505;49.456;8.164;2022-08-14T03:10:42;5.22;;;4.43;;
16775;SDS011;8505;49.456;8.164;2022-08-14T03:13:15;5.40;;;4.63;;
16775;SDS011;8505;49.456;8.164;2022-08-14T03:15:44;5.88;;;4.80;;
16775;SDS011;8505;49.456;8.164;2022-08-14T03:18:20;5.05;;;4.53;;
16775;SDS011;8505;49.456;8.164;2022-08-14T03:20:58;5.80;;;4.60;;
16775;SDS011;8505;49.456;8.164;2022-08-14T03:23:28;5.80;;;4.80;;
16775;SDS011;8505;49.456;8.164;2022-08-14T03:26:06;6.85;;;4.75;;
16775;SDS011;8505;49.456;8.164;2022-08-14T03:28:44;5.10;;;4.60;;
16775;SDS011;8505;49.456;8.164;2022-08-14T03:31:13;5.37;;;4.70;;
16775;SDS011;8505;49.456;8.164;2022-08-14T03:33:42;6.30;;;4.82;;
16775;SDS011;8505;49.456;8.164;2022-08-14T03:36:18;5.55;;;4.85;;
16775;SDS011;8505;49.456;8.164;2022-08-14T03:39:08;5.25;;;4.75;;
16775;SDS011;8505;49.456;8.164;2022-08-14T03:41:50;5.43;;;4.80;;
16775;SDS011;8505;49.456;8.164;2022-08-14T03:44:25;6.00;;;5.10;;
16775;SDS011;8505;49.456;8.164;2022-08-14T03:47:12;6.32;;;4.90;;
16775;SDS011;8505;49.456;8.164;2022-08-14T03:49:41;6.07;;;4.82;;
16775;SDS011;8505;49.456;8.164;2022-08-14T03:52:15;7.20;;;5.20;;
16775;SDS011;8505;49.456;8.164;2022-08-14T03:55:03;6.18;;;5.25;;
16775;SDS011;8505;49.456;8.164;2022-08-14T03:57:34;6.30;;;5.30;;
16775;SDS011;8505;49.456;8.164;2022-08-14T04:00:03;6.10;;;5.45;;
16775;SDS011;8505;49.456;8.164;2022-08-14T04:02:54;6.33;;;5.13;;
16775;SDS011;8505;49.456;8.164;2022-08-14T04:05:23;7.77;;;5.20;;
16775;SDS011;8505;49.456;8.164;2022-08-14T04:07:52;7.50;;;5.30;;
16775;SDS011;8505;49.456;8.164;2022-08-14T04:10:39;6.18;;;5.57;;
16775;SDS011;8505;49.456;8.164;2022-08-14T04:13:08;7.05;;;5.38;;
16775;SDS011;8505;49.456;8.164;2022-08-14T04:15:36;7.10;;;5.70;;
16775;SDS011;8505;49.456;8.164;2022-08-14T04:18:24;6.20;;;5.40;;
16775;SDS011;8505;49.456;8.164;2022-08-14T04:20:52;5.90;;;5.30;;
16775;SDS011;8505;49.456;8.164;2022-08-14T04:23:21;6.30;;;5.70;;
16775;SDS011;8505;49.456;8.164;2022-08-14T04:25:58;7.13;;;5.50;;
16775;SDS011;8505;49.456;8.164;2022-08-14T04:28:28;7.65;;;5.70;;
16775;SDS011;8505;49.456;8.164;2022-08-14T04:31:16;9.90;;;6.03;;
16775;SDS011;8505;49.456;8.164;2022-08-14T04:33:50;6.50;;;5.90;;
16775;SDS011;8505;49.456;8.164;2022-08-14T04:36:19;6.70;;;6.00;;
16775;SDS011;8505;49.456;8.164;2022-08-14T04:38:49;9.57;;;5.88;;
16775;SDS011;8505;49.456;8.164;2022-08-14T04:41:37;7.95;;;5.90;;
16775;SDS011;8505;49.456;8.164;2022-08-14T04:44:38;9.17;;;6.17;;
16775;SDS011;8505;49.456;8.164;2022-08-14T04:47:06;7.87;;;6.50;;
16775;SDS011;8505;49.456;8.164;2022-08-14T04:49:56;7.22;;;6.00;;
16775;SDS011;8505;49.456;8.164;2022-08-14T04:52:28;7.07;;;6.38;;
16775;SDS011;8505;49.456;8.164;2022-08-14T04:55:02;8.02;;;6.20;;
16775;SDS011;8505;49.456;8.164;2022-08-14T04:57:31;6.80;;;6.10;;
16775;SDS011;8505;49.456;8.164;2022-08-14T05:00:01;8.50;;;6.28;;
16775;SDS011;8505;49.456;8.164;2022-08-14T05:02:34;7.30;;;6.00;;
16775;SDS011;8505;49.456;8.164;2022-08-14T05:05:02;7.57;;;6.05;;
16775;SDS011;8505;49.456;8.164;2022-08-14T05:07:30;6.77;;;6.07;;
16775;SDS011;8505;49.456;8.164;2022-08-14T05:10:17;7.70;;;6.20;;
16775;SDS011;8505;49.456;8.164;2022-08-14T05:12:57;6.95;;;6.25;;
16775;SDS011;8505;49.456;8.164;2022-08-14T05:15:41;6.85;;;6.15;;
16775;SDS011;8505;49.456;8.164;2022-08-14T05:18:13;8.68;;;6.07;;
16775;SDS011;8505;49.456;8.164;2022-08-14T05:21:03;8.82;;;6.25;;
16775;SDS011;8505;49.456;8.164;2022-08-14T05:23:52;7.50;;;6.32;;
16775;SDS011;8505;49.456;8.164;2022-08-14T05:26:20;8.07;;;6.50;;
16775;SDS011;8505;49.456;8.164;2022-08-14T05:28:48;8.95;;;6.28;;
16775;SDS011;8505;49.456;8.164;2022-08-14T05:31:18;7.60;;;6.40;;
16775;SDS011;8505;49.456;8.164;2022-08-14T05:33:46;7.32;;;6.47;;
16775;SDS011;8505;49.456;8.164;2022-08-14T05:36:22;9.47;;;6.70;;
16775;SDS011;8505;49.456;8.164;2022-08-14T05:38:52;8.00;;;6.50;;
16775;SDS011;8505;49.456;8.164;2022-08-14T05:41:20;7.40;;;6.70;;
16775;SDS011;8505;49.456;8.164;2022-08-14T05:43:58;7.70;;;6.90;;
16775;SDS011;8505;49.456;8.164;2022-08-14T05:46:28;7.80;;;6.70;;
16775;SDS011;8505;49.456;8.164;2022-08-14T05:48:56;7.50;;;6.70;;
16775;SDS011;8505;49.456;8.164;2022-08-14T05:51:25;8.35;;;6.97;;
16775;SDS011;8505;49.456;8.164;2022-08-14T05:53:55;9.17;;;6.87;;
16775;SDS011;8505;49.456;8.164;2022-08-14T05:56:35;7.43;;;6.68;;
16775;SDS011;8505;49.456;8.164;2022-08-14T05:59:03;8.65;;;7.00;;
16775;SDS011;8505;49.456;8.164;2022-08-14T06:01:34;8.00;;;7.10;;
16775;SDS011;8505;49.456;8.164;2022-08-14T06:04:02;8.50;;;7.30;;
16775;SDS011;8505;49.456;8.164;2022-08-14T06:06:30;8.40;;;7.00;;
16775;SDS011;8505;49.456;8.164;2022-08-14T06:09:03;7.85;;;6.70;;
16775;SDS011;8505;49.456;8.164;2022-08-14T06:11:35;8.73;;;6.63;;
16775;SDS011;8505;49.456;8.164;2022-08-14T06:14:03;7.78;;;6.80;;
16775;SDS011;8505;49.456;8.164;2022-08-14T06:16:47;7.93;;;6.45;;
16775;SDS011;8505;49.456;8.164;2022-08-14T06:19:18;7.40;;;6.70;;
16775;SDS011;8505;49.456;8.164;2022-08-14T06:21:49;7.47;;;6.47;;
16775;SDS011;8505;49.456;8.164;2022-08-14T06:24:24;8.80;;;6.70;;
16775;SDS011;8505;49.456;8.164;2022-08-14T06:26:59;10.30;;;7.07;;
16775;SDS011;8505;49.456;8.164;2022-08-14T06:29:31;9.60;;;6.70;;
16775;SDS011;8505;49.456;8.164;2022-08-14T06:32:02;8.32;;;6.40;;
16775;SDS011;8505;49.456;8.164;2022-08-14T06:34:50;9.00;;;6.78;;
16775;SDS011;8505;49.456;8.164;2022-08-14T06:37:37;11.48;;;7.03;;
16775;SDS011;8505;49.456;8.164;2022-08-14T06:40:07;9.48;;;7.28;;
16775;SDS011;8505;49.456;8.164;2022-08-14T06:42:53;7.95;;;6.97;;
16775;SDS011;8505;49.456;8.164;2022-08-14T06:45:25;8.27;;;6.70;;
16775;SDS011;8505;49.456;8.164;2022-08-14T06:47:55;9.52;;;7.20;;
16775;SDS011;8505;49.456;8.164;2022-08-14T06:50:24;9.32;;;7.80;;
16775;SDS011;8505;49.456;8.164;2022-08-14T06:52:55;8.47;;;7.30;;
16775;SDS011;8505;49.456;8.164;2022-08-14T06:55:23;9.15;;;7.63;;
16775;SDS011;8505;49.456;8.164;2022-08-14T06:57:54;11.73;;;8.52;;
16775;SDS011;8505;49.456;8.164;2022-08-14T07:00:24;10.18;;;7.95;;
16775;SDS011;8505;49.456;8.164;2022-08-14T07:08:24;13.32;;;9.60;;
16775;SDS011;8505;49.456;8.164;2022-08-14T07:10:57;13.55;;;9.70;;
16775;SDS011;8505;49.456;8.164;2022-08-14T07:13:26;11.50;;;9.25;;
16775;SDS011;8505;49.456;8.164;2022-08-14T07:15:56;12.38;;;9.25;;
16775;SDS011;8505;49.456;8.164;2022-08-14T07:18:32;11.35;;;9.75;;
16775;SDS011;8505;49.456;8.164;2022-08-14T07:21:02;12.15;;;9.68;;
16775;SDS011;8505;49.456;8.164;2022-08-14T07:23:32;12.15;;;9.63;;
16775;SDS011;8505;49.456;8.164;2022-08-14T07:26:05;12.68;;;10.55;;
16775;SDS011;8505;49.456;8.164;2022-08-14T07:28:36;16.50;;;10.10;;
16775;SDS011;8505;49.456;8.164;2022-08-14T07:31:09;13.02;;;9.25;;
16775;SDS011;8505;49.456;8.164;2022-08-14T07:33:40;13.40;;;9.88;;
16775;SDS011;8505;49.456;8.164;2022-08-14T07:36:16;15.68;;;9.35;;
16775;SDS011;8505;49.456;8.164;2022-08-14T07:38:56;14.95;;;9.45;;
16775;SDS011;8505;49.456;8.164;2022-08-14T07:41:24;12.13;;;9.23;;
16775;SDS011;8505;49.456;8.164;2022-08-14T07:43:59;13.32;;;9.40;;
16775;SDS011;8505;49.456;8.164;2022-08-14T07:46:48;13.90;;;8.70;;
16775;SDS011;8505;49.456;8.164;2022-08-14T07:49:17;12.13;;;8.73;;
16775;SDS011;8505;49.456;8.164;2022-08-14T07:51:49;11.48;;;9.00;;
16775;SDS011;8505;49.456;8.164;2022-08-14T07:54:17;12.10;;;8.95;;
16775;SDS011;8505;49.456;8.164;2022-08-14T07:56:55;12.65;;;8.50;;
16775;SDS011;8505;49.456;8.164;2022-08-14T07:59:26;11.88;;;8.15;;
16775;SDS011;8505;49.456;8.164;2022-08-14T08:02:09;10.48;;;8.40;;
16775;SDS011;8505;49.456;8.164;2022-08-14T08:04:47;11.98;;;7.78;;
16775;SDS011;8505;49.456;8.164;2022-08-14T08:07:20;12.50;;;7.88;;
16775;SDS011;8505;49.456;8.164;2022-08-14T08:09:52;9.77;;;8.40;;
16775;SDS011;8505;49.456;8.164;2022-08-14T08:12:23;12.38;;;8.02;;
16775;SDS011;8505;49.456;8.164;2022-08-14T08:14:55;11.43;;;7.68;;
16775;SDS011;8505;49.456;8.164;2022-08-14T08:17:33;11.00;;;8.50;;
16775;SDS011;8505;49.456;8.164;2022-08-14T08:20:06;11.50;;;8.13;;
16775;SDS011;8505;49.456;8.164;2022-08-14T08:25:13;13.13;;;8.68;;
16775;SDS011;8505;49.456;8.164;2022-08-14T08:27:52;10.65;;;8.45;;
16775;SDS011;8505;49.456;8.164;2022-08-14T08:30:21;9.82;;;8.13;;
16775;SDS011;8505;49.456;8.164;2022-08-14T08:32:50;9.73;;;8.00;;
16775;SDS011;8505;49.456;8.164;2022-08-14T08:35:21;9.43;;;6.90;;
16775;SDS011;8505;49.456;8.164;2022-08-14T08:38:11;8.98;;;7.47;;
16775;SDS011;8505;49.456;8.164;2022-08-14T08:41:00;10.13;;;7.50;;
16775;SDS011;8505;49.456;8.164;2022-08-14T08:43:29;11.07;;;7.50;;
16775;SDS011;8505;49.456;8.164;2022-08-14T08:46:00;10.00;;;7.80;;
16775;SDS011;8505;49.456;8.164;2022-08-14T08:48:30;9.50;;;7.10;;
16775;SDS011;8505;49.456;8.164;2022-08-14T08:51:20;12.35;;;7.43;;
16775;SDS011;8505;49.456;8.164;2022-08-14T08:53:57;11.88;;;7.53;;
16775;SDS011;8505;49.456;8.164;2022-08-14T08:56:36;10.25;;;7.78;;
16775;SDS011;8505;49.456;8.164;2022-08-14T08:59:18;9.20;;;7.13;;
16775;SDS011;8505;49.456;8.164;2022-08-14T09:01:53;8.40;;;6.95;;
16775;SDS011;8505;49.456;8.164;2022-08-14T09:04:25;8.00;;;6.85;;
16775;SDS011;8505;49.456;8.164;2022-08-14T09:06:56;10.35;;;6.72;;
16775;SDS011;8505;49.456;8.164;2022-08-14T09:09:36;8.38;;;5.65;;
16775;SDS011;8505;49.456;8.164;2022-08-14T09:12:24;8.93;;;6.40;;
16775;SDS011;8505;49.456;8.164;2022-08-14T09:14:57;9.35;;;6.20;;
16775;SDS011;8505;49.456;8.164;2022-08-14T09:17:27;9.52;;;6.05;;
16775;SDS011;8505;49.456;8.164;2022-08-14T09:19:55;10.18;;;6.00;;
16775;SDS011;8505;49.456;8.164;2022-08-14T09:22:29;7.90;;;5.90;;
16775;SDS011;8505;49.456;8.164;2022-08-14T09:25:13;6.93;;;5.55;;
16775;SDS011;8505;49.456;8.164;2022-08-14T09:27:41;11.93;;;5.80;;
16775;SDS011;8505;49.456;8.164;2022-08-14T09:30:09;8.00;;;4.80;;
16775;SDS011;8505;49.456;8.164;2022-08-14T09:33:02;6.78;;;5.00;;
16775;SDS011;8505;49.456;8.164;2022-08-14T09:35:42;9.23;;;5.10;;
16775;SDS011;8505;49.456;8.164;2022-08-14T09:38:27;6.68;;;5.43;;
16775;SDS011;8505;49.456;8.164;2022-08-14T09:41:08;6.88;;;5.13;;
16775;SDS011;8505;49.456;8.164;2022-08-14T09:43:46;7.32;;;5.07;;
16775;SDS011;8505;49.456;8.164;2022-08-14T09:46:21;5.90;;;5.30;;
16775;SDS011;8505;49.456;8.164;2022-08-14T09:49:00;9.32;;;4.88;;
16775;SDS011;8505;49.456;8.164;2022-08-14T09:51:30;7.78;;;5.35;;
16775;SDS011;8505;49.456;8.164;2022-08-14T09:54:18;7.40;;;5.07;;
16775;SDS011;8505;49.456;8.164;2022-08-14T09:56:49;8.20;;;4.43;;
16775;SDS011;8505;49.456;8.164;2022-08-14T09:59:25;5.72;;;4.30;;
16775;SDS011;8505;49.456;8.164;2022-08-14T10:02:01;4.72;;;4.22;;
16775;SDS011;8505;49.456;8.164;2022-08-14T10:04:34;4.07;;;3.75;;
16775;SDS011;8505;49.456;8.164;2022-08-14T10:07:11;5.10;;;4.28;;
16775;SDS011;8505;49.456;8.164;2022-08-14T10:09:49;7.65;;;4.10;;
16775;SDS011;8505;49.456;8.164;2022-08-14T10:12:43;6.22;;;4.38;;
16775;SDS011;8505;49.456;8.164;2022-08-14T10:15:16;7.25;;;4.38;;
16775;SDS011;8505;49.456;8.164;2022-08-14T10:17:46;5.70;;;4.50;;
16775;SDS011;8505;49.456;8.164;2022-08-14T10:20:18;5.65;;;4.65;;
16775;SDS011;8505;49.456;8.164;2022-08-14T10:23:10;7.05;;;5.00;;
16775;SDS011;8505;49.456;8.164;2022-08-14T10:25:45;5.30;;;4.60;;
16775;SDS011;8505;49.456;8.164;2022-08-14T10:28:19;7.20;;;4.90;;
16775;SDS011;8505;49.456;8.164;2022-08-14T10:31:15;6.28;;;4.53;;
16775;SDS011;8505;49.456;8.164;2022-08-14T10:34:01;7.28;;;5.13;;
16775;SDS011;8505;49.456;8.164;2022-08-14T10:36:39;6.82;;;5.00;;
16775;SDS011;8505;49.456;8.164;2022-08-14T10:39:14;7.72;;;5.32;;
16775;SDS011;8505;49.456;8.164;2022-08-14T10:41:45;5.50;;;4.32;;
16775;SDS011;8505;49.456;8.164;2022-08-14T10:44:21;5.30;;;3.72;;
16775;SDS011;8505;49.456;8.164;2022-08-14T10:46:54;5.97;;;3.90;;
16775;SDS011;8505;49.456;8.164;2022-08-14T10:49:54;8.60;;;4.10;;
16775;SDS011;8505;49.456;8.164;2022-08-14T10:52:25;7.40;;;4.88;;
16775;SDS011;8505;49.456;8.164;2022-08-14T10:55:06;8.02;;;3.85;;
16775;SDS011;8505;49.456;8.164;2022-08-14T10:57:47;8.98;;;4.15;;
16775;SDS011;8505;49.456;8.164;2022-08-14T11:00:17;5.47;;;4.65;;
16775;SDS011;8505;49.456;8.164;2022-08-14T11:03:00;8.23;;;4.18;;
16775;SDS011;8505;49.456;8.164;2022-08-14T11:05:38;9.45;;;4.47;;
16775;SDS011;8505;49.456;8.164;2022-08-14T11:08:08;7.50;;;4.32;;
16775;SDS011;8505;49.456;8.164;2022-08-14T11:10:40;7.53;;;4.80;;
16775;SDS011;8505;49.456;8.164;2022-08-14T11:13:15;4.43;;;4.00;;
16775;SDS011;8505;49.456;8.164;2022-08-14T11:15:49;6.43;;;3.80;;
16775;SDS011;8505;49.456;8.164;2022-08-14T11:18:18;7.88;;;3.92;;
16775;SDS011;8505;49.456;8.164;2022-08-14T11:21:02;6.57;;;4.00;;
16775;SDS011;8505;49.456;8.164;2022-08-14T11:23:34;4.82;;;3.75;;
16775;SDS011;8505;49.456;8.164;2022-08-14T11:26:09;5.30;;;3.90;;
16775;SDS011;8505;49.456;8.164;2022-08-14T11:28:40;5.50;;;3.42;;
16775;SDS011;8505;49.456;8.164;2022-08-14T11:31:13;9.00;;;3.30;;
16775;SDS011;8505;49.456;8.164;2022-08-14T11:33:42;5.18;;;3.20;;
16775;SDS011;8505;49.456;8.164;2022-08-14T11:36:14;4.28;;;2.92;;
16775;SDS011;8505;49.456;8.164;2022-08-14T11:38:44;4.07;;;3.10;;
16775;SDS011;8505;49.456;8.164;2022-08-14T11:41:14;4.13;;;3.03;;
16775;SDS011;8505;49.456;8.164;2022-08-14T11:43:44;3.70;;;3.30;;
16775;SDS011;8505;49.456;8.164;2022-08-14T11:46:23;3.78;;;3.00;;
16775;SDS011;8505;49.456;8.164;2022-08-14T11:49:02;3.92;;;2.83;;
16775;SDS011;8505;49.456;8.164;2022-08-14T11:51:32;2.88;;;2.67;;
16775;SDS011;8505;49.456;8.164;2022-08-14T11:54:19;3.40;;;3.00;;
16775;SDS011;8505;49.456;8.164;2022-08-14T11:56:59;6.05;;;2.65;;
16775;SDS011;8505;49.456;8.164;2022-08-14T11:59:31;4.15;;;2.90;;
16775;SDS011;8505;49.456;8.164;2022-08-14T12:02:07;4.13;;;2.72;;
16775;SDS011;8505;49.456;8.164;2022-08-14T12:04:55;2.80;;;2.53;;
16775;SDS011;8505;49.456;8.164;2022-08-14T12:07:23;3.80;;;2.70;;
16775;SDS011;8505;49.456;8.164;2022-08-14T12:09:52;3.72;;;2.88;;
16775;SDS011;8505;49.456;8.164;2022-08-14T12:12:22;2.70;;;2.50;;
16775;SDS011;8505;49.456;8.164;2022-08-14T12:15:03;4.10;;;2.72;;
16775;SDS011;8505;49.456;8.164;2022-08-14T12:17:42;4.80;;;2.65;;
16775;SDS011;8505;49.456;8.164;2022-08-14T12:20:15;2.60;;;2.35;;
16775;SDS011;8505;49.456;8.164;2022-08-14T12:22:58;2.90;;;2.70;;
16775;SDS011;8505;49.456;8.164;2022-08-14T12:25:26;3.30;;;3.00;;
16775;SDS011;8505;49.456;8.164;2022-08-14T12:28:00;4.07;;;2.72;;
16775;SDS011;8505;49.456;8.164;2022-08-14T12:30:33;3.33;;;2.80;;
16775;SDS011;8505;49.456;8.164;2022-08-14T12:33:05;3.75;;;2.85;;
16775;SDS011;8505;49.456;8.164;2022-08-14T12:35:49;3.13;;;2.58;;
16775;SDS011;8505;49.456;8.164;2022-08-14T12:38:33;3.70;;;2.97;;
16775;SDS011;8505;49.456;8.164;2022-08-14T12:41:07;3.00;;;2.70;;
16775;SDS011;8505;49.456;8.164;2022-08-14T12:43:46;2.85;;;2.63;;
16775;SDS011;8505;49.456;8.164;2022-08-14T12:46:21;4.43;;;2.78;;
16775;SDS011;8505;49.456;8.164;2022-08-14T12:48:54;5.68;;;2.88;;
16775;SDS011;8505;49.456;8.164;2022-08-14T12:51:25;5.95;;;2.47;;
16775;SDS011;8505;49.456;8.164;2022-08-14T12:53:56;4.75;;;2.60;;
16775;SDS011;8505;49.456;8.164;2022-08-14T12:56:25;2.65;;;2.45;;
16775;SDS011;8505;49.456;8.164;2022-08-14T12:58:59;3.75;;;2.53;;
16775;SDS011;8505;49.456;8.164;2022-08-14T13:01:30;4.82;;;2.85;;
16775;SDS011;8505;49.456;8.164;2022-08-14T13:04:19;2.72;;;2.47;;
16775;SDS011;8505;49.456;8.164;2022-08-14T13:06:48;3.45;;;2.50;;
16775;SDS011;8505;49.456;8.164;2022-08-14T13:09:18;3.05;;;2.75;;
16775;SDS011;8505;49.456;8.164;2022-08-14T13:11:49;2.97;;;2.63;;
16775;SDS011;8505;49.456;8.164;2022-08-14T13:14:39;3.00;;;2.70;;
16775;SDS011;8505;49.456;8.164;2022-08-14T13:17:15;5.25;;;2.50;;
16775;SDS011;8505;49.456;8.164;2022-08-14T13:19:44;3.15;;;2.25;;
16775;SDS011;8505;49.456;8.164;2022-08-14T13:22:14;2.85;;;2.55;;
16775;SDS011;8505;49.456;8.164;2022-08-14T13:24:57;3.05;;;2.45;;
16775;SDS011;8505;49.456;8.164;2022-08-14T13:27:30;4.53;;;2.90;;
16775;SDS011;8505;49.456;8.164;2022-08-14T13:30:05;6.05;;;2.60;;
16775;SDS011;8505;49.456;8.164;2022-08-14T13:32:50;3.88;;;2.35;;
16775;SDS011;8505;49.456;8.164;2022-08-14T13:35:18;3.13;;;2.60;;
16775;SDS011;8505;49.456;8.164;2022-08-14T13:37:48;3.95;;;2.58;;
16775;SDS011;8505;49.456;8.164;2022-08-14T13:40:18;2.85;;;2.42;;
16775;SDS011;8505;49.456;8.164;2022-08-14T13:42:52;5.15;;;2.40;;
16775;SDS011;8505;49.456;8.164;2022-08-14T13:45:22;2.42;;;2.20;;
16775;SDS011;8505;49.456;8.164;2022-08-14T13:48:12;4.13;;;2.30;;
16775;SDS011;8505;49.456;8.164;2022-08-14T13:50:59;3.83;;;2.60;;
16775;SDS011;8505;49.456;8.164;2022-08-14T13:53:34;4.82;;;2.33;;
16775;SDS011;8505;49.456;8.164;2022-08-14T13:56:30;3.60;;;2.38;;
16775;SDS011;8505;49.456;8.164;2022-08-14T13:59:02;4.50;;;2.50;;
16775;SDS011;8505;49.456;8.164;2022-08-14T14:01:31;2.63;;;2.38;;
16775;SDS011;8505;49.456;8.164;2022-08-14T14:04:12;3.90;;;2.83;;
16775;SDS011;8505;49.456;8.164;2022-08-14T14:06:45;2.72;;;2.42;;
16775;SDS011;8505;49.456;8.164;2022-08-14T14:09:20;3.78;;;2.47;;
16775;SDS011;8505;49.456;8.164;2022-08-14T14:12:03;2.65;;;2.40;;
16775;SDS011;8505;49.456;8.164;2022-08-14T14:14:31;5.30;;;2.60;;
16775;SDS011;8505;49.456;8.164;2022-08-14T14:17:16;2.50;;;2.30;;
16775;SDS011;8505;49.456;8.164;2022-08-14T14:19:51;3.35;;;2.40;;
16775;SDS011;8505;49.456;8.164;2022-08-14T14:22:18;5.20;;;2.47;;
16775;SDS011;8505;49.456;8.164;2022-08-14T14:25:06;3.78;;;2.28;;
16775;SDS011;8505;49.456;8.164;2022-08-14T14:27:36;3.08;;;2.15;;
16775;SDS011;8505;49.456;8.164;2022-08-14T14:30:08;2.45;;;2.25;;
16775;SDS011;8505;49.456;8.164;2022-08-14T14:32:56;3.70;;;2.20;;
16775;SDS011;8505;49.456;8.164;2022-08-14T14:35:32;4.97;;;2.17;;
16775;SDS011;8505;49.456;8.164;2022-08-14T14:38:05;3.05;;;2.30;;
16775;SDS011;8505;49.456;8.164;2022-08-14T14:40:34;5.43;;;2.50;;
16775;SDS011;8505;49.456;8.164;2022-08-14T14:43:22;3.22;;;2.38;;
16775;SDS011;8505;49.456;8.164;2022-08-14T14:45:51;5.35;;;2.47;;
16775;SDS011;8505;49.456;8.164;2022-08-14T14:48:20;3.55;;;2.60;;
16775;SDS011;8505;49.456;8.164;2022-08-14T14:50:55;5.18;;;2.55;;
16775;SDS011;8505;49.456;8.164;2022-08-14T14:53:26;3.10;;;2.40;;
16775;SDS011;8505;49.456;8.164;2022-08-14T14:56:04;4.60;;;2.40;;
16775;SDS011;8505;49.456;8.164;2022-08-14T14:58:54;2.38;;;2.05;;
16775;SDS011;8505;49.456;8.164;2022-08-14T15:01:23;2.97;;;2.40;;
16775;SDS011;8505;49.456;8.164;2022-08-14T15:03:53;2.75;;;2.30;;
16775;SDS011;8505;49.456;8.164;2022-08-14T15:06:23;2.58;;;2.28;;
16775;SDS011;8505;49.456;8.164;2022-08-14T15:08:57;2.97;;;2.15;;
16775;SDS011;8505;49.456;8.164;2022-08-14T15:11:25;5.82;;;2.47;;
16775;SDS011;8505;49.456;8.164;2022-08-14T15:13:55;2.42;;;2.22;;
16775;SDS011;8505;49.456;8.164;2022-08-14T15:16:25;4.72;;;2.35;;
16775;SDS011;8505;49.456;8.164;2022-08-14T15:18:54;2.50;;;2.30;;
16775;SDS011;8505;49.456;8.164;2022-08-14T15:21:24;3.78;;;2.20;;
16775;SDS011;8505;49.456;8.164;2022-08-14T15:23:52;4.50;;;2.33;;
16775;SDS011;8505;49.456;8.164;2022-08-14T15:26:20;2.40;;;2.20;;
16775;SDS011;8505;49.456;8.164;2022-08-14T15:28:58;5.85;;;2.38;;
16775;SDS011;8505;49.456;8.164;2022-08-14T15:31:30;2.50;;;2.30;;
16775;SDS011;8505;49.456;8.164;2022-08-14T15:34:02;2.92;;;2.20;;
16775;SDS011;8505;49.456;8.164;2022-08-14T15:37:00;2.30;;;2.10;;
16775;SDS011;8505;49.456;8.164;2022-08-14T15:39:29;3.83;;;2.50;;
16775;SDS011;8505;49.456;8.164;2022-08-14T15:42:01;3.05;;;2.33;;
16775;SDS011;8505;49.456;8.164;2022-08-14T15:44:41;7.78;;;2.25;;
16775;SDS011;8505;49.456;8.164;2022-08-14T15:47:26;5.05;;;2.55;;
16775;SDS011;8505;49.456;8.164;2022-08-14T15:49:55;5.25;;;2.20;;
16775;SDS011;8505;49.456;8.164;2022-08-14T15:52:27;3.30;;;2.10;;
16775;SDS011;8505;49.456;8.164;2022-08-14T15:55:09;4.47;;;2.22;;
16775;SDS011;8505;49.456;8.164;2022-08-14T15:57:40;2.80;;;2.35;;